Time;durP1;ratioP1;P1;durP2;ratioP2;P2;SDS_P1;SDS_P2;PMS_P1;PMS_P2;Temp;Humidity;BMP_temperature;BMP_pressure;BME280_temperature;BME280_humidity;BME280_pressure;Samples;Min_cycle;Max_cycle;Signal;HPM_P1;HPM_P2
2023/09/13 00:00:07;;;;;;;;;;;;;;;22.62;100.00;99572.59;4943911;29;19934;-76
2023/09/13 00:02:40;;;;;;;;;;;;;;;22.58;100.00;99571.38;4942488;29;20014;-76
2023/09/13 00:05:06;;;;;;;;;;;;;;;22.62;100.00;99565.31;4942261;29;20364;-76
2023/09/13 00:07:31;;;;;;;;;;;;;;;22.66;100.00;99568.41;4940260;29;20358;-76
2023/09/13 00:09:56;;;;;;;;;;;;;;;22.68;100.00;99566.34;4941245;29;19923;-76
2023/09/13 00:12:22;;;;;;;;;;;;;;;22.64;100.00;99567.81;4945634;29;19929;-76
2023/09/13 00:14:47;;;;;;;;;;;;;;;22.64;100.00;99555.19;4948091;29;19922;-76
2023/09/13 00:17:12;;;;;;;;;;;;;;;22.65;100.00;99550.63;4928801;29;19962;-76
2023/09/13 00:19:38;;;;;;;;;;;;;;;22.69;100.00;99541.88;4946519;29;19922;-76
2023/09/13 00:22:03;;;;;;;;;;;;;;;22.71;100.00;99544.38;4947481;29;19919;-76
2023/09/13 00:24:29;;;;;;;;;;;;;;;22.66;100.00;99538.81;4945434;29;19927;-77
2023/09/13 00:26:54;;;;;;;;;;;;;;;22.63;100.00;99537.38;4945454;29;19922;-76
2023/09/13 00:29:19;;;;;;;;;;;;;;;22.65;100.00;99534.50;4944778;29;19925;-77
2023/09/13 00:31:45;;;;;;;;;;;;;;;22.56;100.00;99530.44;4916764;29;19976;-76
2023/09/13 00:34:10;;;;;;;;;;;;;;;22.55;100.00;99524.25;4946782;29;20009;-77
2023/09/13 00:36:35;;;;;;;;;;;;;;;22.51;100.00;99528.41;4927822;29;20372;-77
2023/09/13 00:39:03;;;;;;;;;;;;;;;22.50;100.00;99526.78;4945331;29;19933;-76
2023/09/13 00:41:30;;;;;;;;;;;;;;;22.50;100.00;99531.34;4946733;29;19978;-76
2023/09/13 00:43:55;;;;;;;;;;;;;;;22.49;100.00;99524.31;4926731;29;20299;-76
2023/09/13 00:46:21;;;;;;;;;;;;;;;22.42;100.00;99527.03;4929527;29;19927;-74
2023/09/13 00:48:46;;;;;;;;;;;;;;;22.42;100.00;99535.94;4929952;29;19922;-76
2023/09/13 00:51:12;;;;;;;;;;;;;;;22.40;100.00;99535.31;4945107;29;20372;-74
2023/09/13 00:53:38;;;;;;;;;;;;;;;22.43;100.00;99532.22;4946067;29;20054;-74
2023/09/13 00:56:04;;;;;;;;;;;;;;;22.46;100.00;99541.69;4925875;29;20010;-75
2023/09/13 00:58:30;;;;;;;;;;;;;;;22.28;100.00;99542.44;4939668;29;20021;-75
2023/09/13 01:00:56;;;;;;;;;;;;;;;22.26;100.00;99536.50;4939103;29;19923;-74
2023/09/13 01:03:22;;;;;;;;;;;;;;;22.30;100.00;99521.56;4922149;29;19938;-75
2023/09/13 01:05:52;;;;;;;;;;;;;;;22.25;100.00;99516.03;4946001;29;20001;-74
2023/09/13 01:08:17;;;;;;;;;;;;;;;22.26;100.00;99509.59;4943850;29;19922;-75
2023/09/13 01:10:43;;;;;;;;;;;;;;;22.23;100.00;99515.41;4942410;29;20360;-75
2023/09/13 01:13:08;;;;;;;;;;;;;;;22.21;100.00;99514.78;4946497;29;19930;-75
2023/09/13 01:15:37;;;;;;;;;;;;;;;22.18;100.00;99512.56;4946719;29;19923;-75
2023/09/13 01:18:03;;;;;;;;;;;;;;;22.23;100.00;99515.41;4927344;29;19927;-75
2023/09/13 01:20:48;;;;;;;;;;;;;;;22.21;100.00;99522.84;4930951;29;19925;-76
2023/09/13 01:23:45;;;;;;;;;;;;;;;22.19;100.00;99521.44;4943167;28;20670;-76
2023/09/13 01:26:29;;;;;;;;;;;;;;;22.10;100.00;99533.47;4913348;29;19923;-76
2023/09/13 01:28:55;;;;;;;;;;;;;;;22.13;100.00;99528.50;4926877;29;19934;-76
2023/09/13 01:31:24;;;;;;;;;;;;;;;22.14;100.00;99538.22;4943091;29;20065;-74
2023/09/13 01:33:50;;;;;;;;;;;;;;;22.05;100.00;99537.66;4940055;29;19926;-75
2023/09/13 01:36:15;;;;;;;;;;;;;;;22.02;100.00;99534.59;4929584;29;19923;-75
2023/09/13 01:38:41;;;;;;;;;;;;;;;21.99;100.00;99540.38;4945085;29;20112;-76
2023/09/13 01:41:17;;;;;;;;;;;;;;;21.97;100.00;99531.75;4924003;29;20464;-75
2023/09/13 01:43:43;;;;;;;;;;;;;;;21.96;100.00;99530.91;4946501;29;19930;-75
2023/09/13 01:46:10;;;;;;;;;;;;;;;21.81;100.00;99526.81;4926725;29;20009;-75
2023/09/13 01:48:36;;;;;;;;;;;;;;;21.85;100.00;99522.69;4945230;29;20017;-75
2023/09/13 01:51:02;;;;;;;;;;;;;;;21.70;100.00;99524.81;4925691;29;20022;-75
2023/09/13 01:53:28;;;;;;;;;;;;;;;21.58;100.00;99516.63;4945104;29;19977;-75
2023/09/13 01:55:54;;;;;;;;;;;;;;;21.61;100.00;99514.34;4943249;29;19926;-76
2023/09/13 01:58:19;;;;;;;;;;;;;;;21.61;100.00;99513.53;4943871;29;19972;-76
2023/09/13 02:00:45;;;;;;;;;;;;;;;21.71;100.00;99524.63;4924914;29;19973;-75
2023/09/13 02:03:10;;;;;;;;;;;;;;;21.76;100.00;99518.59;4926359;29;20400;-75
2023/09/13 02:05:35;;;;;;;;;;;;;;;21.83;100.00;99508.63;4945362;29;20291;-75
2023/09/13 02:08:01;;;;;;;;;;;;;;;21.83;100.00;99497.91;4928379;29;19977;-75
2023/09/13 02:10:26;;;;;;;;;;;;;;;21.81;100.00;99495.41;4943565;29;19922;-75
2023/09/13 02:12:51;;;;;;;;;;;;;;;21.80;100.00;99501.00;4944477;29;19922;-75
2023/09/13 02:15:17;;;;;;;;;;;;;;;21.78;100.00;99495.03;4928528;29;20296;-76
2023/09/13 02:17:43;;;;;;;;;;;;;;;21.76;100.00;99492.56;4942249;29;19978;-76
2023/09/13 02:20:11;;;;;;;;;;;;;;;21.79;100.00;99491.31;4942328;29;19930;-76
2023/09/13 02:22:36;;;;;;;;;;;;;;;21.80;100.00;99492.94;4944201;29;20320;-76
2023/09/13 02:25:03;;;;;;;;;;;;;;;21.84;100.00;99500.38;4942624;29;19927;-74
2023/09/13 02:27:29;;;;;;;;;;;;;;;21.87;100.00;99499.09;4945074;29;19930;-76
2023/09/13 02:29:54;;;;;;;;;;;;;;;21.91;100.00;99500.34;4942505;29;19923;-76
2023/09/13 02:32:19;;;;;;;;;;;;;;;21.93;100.00;99499.06;4942295;29;20017;-76
2023/09/13 02:34:45;;;;;;;;;;;;;;;21.94;100.00;99494.50;4944450;28;19923;-76
2023/09/13 02:37:10;;;;;;;;;;;;;;;21.95;100.00;99507.75;4942890;29;20050;-76
2023/09/13 02:39:37;;;;;;;;;;;;;;;21.96;100.00;99512.09;4925090;29;19978;-76
2023/09/13 02:42:03;;;;;;;;;;;;;;;21.97;100.00;99515.63;4934204;29;19977;-76
2023/09/13 02:44:30;;;;;;;;;;;;;;;21.99;100.00;99516.19;4941302;29;19929;-76
2023/09/13 02:46:55;;;;;;;;;;;;;;;22.03;100.00;99514.75;4926388;29;20291;-77
2023/09/13 02:49:21;;;;;;;;;;;;;;;22.05;100.00;99526.09;4927480;29;19933;-78
2023/09/13 02:51:47;;;;;;;;;;;;;;;22.04;100.00;99529.81;4943136;29;19931;-76
2023/09/13 02:54:13;;;;;;;;;;;;;;;22.02;100.00;99542.66;4927102;29;19923;-75
2023/09/13 02:56:39;;;;;;;;;;;;;;;22.00;100.00;99547.41;4926057;29;19929;-76
2023/09/13 02:59:05;;;;;;;;;;;;;;;21.99;100.00;99540.38;4925370;29;19930;-76
2023/09/13 03:01:30;;;;;;;;;;;;;;;22.00;100.00;99525.91;4925053;29;20009;-76
2023/09/13 03:03:56;;;;;;;;;;;;;;;21.96;100.00;99524.72;4942990;29;19988;-77
2023/09/13 03:06:21;;;;;;;;;;;;;;;22.00;100.00;99526.75;4927242;29;19935;-75
2023/09/13 03:08:47;;;;;;;;;;;;;;;21.99;100.00;99529.63;4941333;29;20351;-75
2023/09/13 03:11:14;;;;;;;;;;;;;;;21.98;100.00;99522.59;4943940;29;19931;-77
2023/09/13 03:13:39;;;;;;;;;;;;;;;21.97;100.00;99527.16;4927672;29;19922;-76
2023/09/13 03:16:11;;;;;;;;;;;;;;;21.96;100.00;99524.72;4940891;29;19980;-75
2023/09/13 03:18:37;;;;;;;;;;;;;;;21.96;100.00;99525.53;4909650;29;19929;-75
2023/09/13 03:21:05;;;;;;;;;;;;;;;21.96;100.00;99513.97;4926841;29;19926;-76
2023/09/13 03:23:30;;;;;;;;;;;;;;;21.93;100.00;99517.88;4923199;29;19923;-76
2023/09/13 03:25:56;;;;;;;;;;;;;;;21.97;100.00;99510.25;4925805;29;19946;-75
2023/09/13 03:28:21;;;;;;;;;;;;;;;21.98;100.00;99507.31;4944124;29;20017;-76
2023/09/13 03:30:47;;;;;;;;;;;;;;;22.02;100.00;99513.91;4924299;29;19970;-76
2023/09/13 03:33:12;;;;;;;;;;;;;;;22.04;100.00;99511.81;4925798;29;20368;-75
2023/09/13 03:35:38;;;;;;;;;;;;;;;22.06;100.00;99514.28;4941008;29;19923;-76
2023/09/13 03:38:03;;;;;;;;;;;;;;;22.02;100.00;99523.84;4925196;29;19923;-77
2023/09/13 03:40:28;;;;;;;;;;;;;;;22.00;100.00;99516.00;4943879;29;20422;-76
2023/09/13 03:42:54;;;;;;;;;;;;;;;22.01;100.00;99517.66;4941630;29;19934;-77
2023/09/13 03:45:19;;;;;;;;;;;;;;;21.99;100.00;99517.03;4926081;29;19929;-76
2023/09/13 03:47:45;;;;;;;;;;;;;;;22.00;100.00;99523.22;4926602;29;20436;-77
2023/09/13 03:50:10;;;;;;;;;;;;;;;22.00;100.00;99525.91;4925252;29;19977;-77
2023/09/13 03:52:35;;;;;;;;;;;;;;;21.99;100.00;99518.88;4937303;29;20002;-76
2023/09/13 03:55:01;;;;;;;;;;;;;;;21.98;100.00;99525.28;4941628;29;19926;-77
2023/09/13 03:57:26;;;;;;;;;;;;;;;21.99;100.00;99532.31;4940424;29;19929;-77
2023/09/13 03:59:52;;;;;;;;;;;;;;;22.01;100.00;99527.56;4942398;29;19933;-77
2023/09/13 04:02:17;;;;;;;;;;;;;;;21.99;100.00;99530.47;4940761;29;19981;-77
2023/09/13 04:04:43;;;;;;;;;;;;;;;22.02;100.00;99529.22;4943474;29;19931;-75
2023/09/13 04:07:09;;;;;;;;;;;;;;;22.01;100.00;99535.63;4942821;29;19926;-78
2023/09/13 04:09:34;;;;;;;;;;;;;;;22.01;100.00;99530.25;4942580;29;19941;-75
2023/09/13 04:12:00;;;;;;;;;;;;;;;22.00;100.00;99528.59;4942496;29;19922;-77
2023/09/13 04:14:25;;;;;;;;;;;;;;;22.01;100.00;99538.31;4939464;29;20387;-76
2023/09/13 04:16:51;;;;;;;;;;;;;;;22.01;100.00;99538.31;4940165;29;19965;-77
2023/09/13 04:19:17;;;;;;;;;;;;;;;22.02;100.00;99538.09;4943643;29;19923;-77
2023/09/13 04:21:42;;;;;;;;;;;;;;;22.04;100.00;99543.25;4937639;29;20070;-75
2023/09/13 04:24:08;;;;;;;;;;;;;;;22.03;100.00;99541.63;4942968;29;19965;-75
2023/09/13 04:26:33;;;;;;;;;;;;;;;22.04;100.00;99540.56;4944153;29;19929;-77
2023/09/13 04:28:59;;;;;;;;;;;;;;;22.06;100.00;99546.53;4942136;29;19922;-76
2023/09/13 04:31:24;;;;;;;;;;;;;;;22.04;100.00;99538.69;4939135;29;19927;-76
2023/09/13 04:33:54;;;;;;;;;;;;;;;21.97;100.00;99529.84;4937553;29;19923;-76
2023/09/13 04:36:23;;;;;;;;;;;;;;;21.91;100.00;99521.81;4939631;29;19933;-77
2023/09/13 04:38:49;;;;;;;;;;;;;;;21.95;100.00;99509.63;4942305;29;19970;-76
2023/09/13 04:41:16;;;;;;;;;;;;;;;21.96;100.00;99513.97;4940397;29;19922;-76
2023/09/13 04:43:41;;;;;;;;;;;;;;;21.93;100.00;99509.81;4969692;23;20107;-81
2023/09/13 04:46:07;;;;;;;;;;;;;;;21.89;100.00;99502.41;4918231;29;19939;-94
2023/09/13 04:48:34;;;;;;;;;;;;;;;21.84;100.00;99488.81;4923179;29;20018;-88
2023/09/13 04:51:00;;;;;;;;;;;;;;;21.77;100.00;99488.00;4901700;29;19932;-90
2023/09/13 04:53:26;;;;;;;;;;;;;;;21.78;100.00;99500.41;4926176;29;19927;-78
2023/09/13 04:55:51;;;;;;;;;;;;;;;21.78;100.00;99516.53;4898526;29;19927;-77
2023/09/13 04:58:17;;;;;;;;;;;;;;;21.75;100.00;99531.19;4916078;29;19923;-79
2023/09/13 05:00:42;;;;;;;;;;;;;;;21.71;100.00;99531.84;4920595;29;20533;-81
2023/09/13 05:03:08;;;;;;;;;;;;;;;21.63;100.00;99540.97;4918230;29;20285;-80
2023/09/13 05:05:33;;;;;;;;;;;;;;;21.60;100.00;99542.25;4905903;29;19963;-81
2023/09/13 05:07:58;;;;;;;;;;;;;;;21.58;100.00;99549.69;4904174;29;19930;-81
2023/09/13 05:10:24;;;;;;;;;;;;;;;21.63;100.00;99549.03;4904055;29;19924;-82
2023/09/13 05:12:49;;;;;;;;;;;;;;;21.63;100.00;99551.72;4905655;29;19920;-82
2023/09/13 05:15:15;;;;;;;;;;;;;;;21.59;100.00;99551.31;4906401;29;19927;-81
2023/09/13 05:17:40;;;;;;;;;;;;;;;21.56;100.00;99546.38;4907487;29;20313;-77
2023/09/13 05:20:06;;;;;;;;;;;;;;;21.44;100.00;99556.13;4906810;29;19939;-79
2023/09/13 05:22:32;;;;;;;;;;;;;;;21.40;100.00;99562.97;4907571;29;19928;-81
2023/09/13 05:24:57;;;;;;;;;;;;;;;21.22;100.00;99577.06;4907634;29;19923;-80
2023/09/13 05:27:22;;;;;;;;;;;;;;;21.11;100.00;99595.63;4908174;29;19946;-81
2023/09/13 05:29:52;;;;;;;;;;;;;;;20.93;100.00;99606.19;4902492;29;20309;-77
2023/09/13 05:32:17;;;;;;;;;;;;;;;20.91;100.00;99611.75;4905499;29;19931;-77
2023/09/13 05:34:42;;;;;;;;;;;;;;;20.89;100.00;99604.97;4906905;29;20001;-77
2023/09/13 05:37:07;;;;;;;;;;;;;;;21.01;100.00;99611.34;4904774;29;19955;-77
2023/09/13 05:39:33;;;;;;;;;;;;;;;21.09;100.00;99603.88;4907290;29;19975;-77
2023/09/13 05:42:01;;;;;;;;;;;;;;;21.16;100.00;99593.19;4908309;29;20297;-78
2023/09/13 05:44:26;;;;;;;;;;;;;;;21.21;100.00;99583.47;4905688;29;19924;-78
2023/09/13 05:46:54;;;;;;;;;;;;;;;21.30;100.00;99589.44;4910438;29;20063;-78
2023/09/13 05:49:20;;;;;;;;;;;;;;;21.36;100.00;99582.41;4904859;29;20445;-78
2023/09/13 05:51:48;;;;;;;;;;;;;;;21.40;100.00;99579.06;4907833;29;20002;-78
2023/09/13 05:54:13;;;;;;;;;;;;;;;21.47;100.00;99589.78;4906595;29;20393;-77
2023/09/13 05:56:39;;;;;;;;;;;;;;;21.53;100.00;99589.78;4905969;29;19930;-78
2023/09/13 05:59:05;;;;;;;;;;;;;;;21.58;100.00;99584.59;4906307;29;19923;-77
2023/09/13 06:01:30;;;;;;;;;;;;;;;21.65;100.00;99580.00;4910626;29;19923;-77
2023/09/13 06:03:55;;;;;;;;;;;;;;;21.65;100.00;99577.31;4904653;29;20022;-77
2023/09/13 06:06:21;;;;;;;;;;;;;;;21.70;100.00;99578.53;4907416;29;20382;-78
2023/09/13 06:08:48;;;;;;;;;;;;;;;21.78;100.00;99581.00;4919906;29;19970;-78
2023/09/13 06:11:15;;;;;;;;;;;;;;;21.83;100.00;99582.00;4907416;29;19953;-78
2023/09/13 06:13:40;;;;;;;;;;;;;;;21.87;100.00;99568.94;4899871;29;19950;-78
2023/09/13 06:16:06;;;;;;;;;;;;;;;21.84;100.00;99569.38;4902830;29;19924;-78
2023/09/13 06:18:31;;;;;;;;;;;;;;;21.80;100.00;99573.53;4905935;29;20085;-77
2023/09/13 06:20:56;;;;;;;;;;;;;;;21.83;100.00;99573.94;4903533;29;20044;-77
2023/09/13 06:23:32;;;;;;;;;;;;;;;21.87;100.00;99585.88;4904646;29;19923;-77
2023/09/13 06:25:57;;;;;;;;;;;;;;;21.94;100.00;99585.84;4903660;29;20342;-77
2023/09/13 06:28:23;;;;;;;;;;;;;;;21.99;100.00;99594.13;4904406;29;19975;-77
2023/09/13 06:30:48;;;;;;;;;;;;;;;22.06;100.00;99597.59;4920296;29;20288;-78
2023/09/13 06:33:14;;;;;;;;;;;;;;;22.10;100.00;99604.19;4903075;29;20392;-77
2023/09/13 06:35:39;;;;;;;;;;;;;;;22.09;100.00;99610.59;4906602;29;19969;-77
2023/09/13 06:38:05;;;;;;;;;;;;;;;22.11;100.00;99611.22;4915896;29;19923;-77
2023/09/13 06:40:30;;;;;;;;;;;;;;;22.15;100.00;99619.69;4907624;29;19930;-75
2023/09/13 06:42:55;;;;;;;;;;;;;;;22.19;100.00;99621.72;4904398;29;19924;-76
2023/09/13 06:45:21;;;;;;;;;;;;;;;22.27;100.00;99618.75;4905657;29;19927;-78
2023/09/13 06:47:46;;;;;;;;;;;;;;;22.34;100.00;99624.09;4906844;29;19957;-77
2023/09/13 06:50:12;;;;;;;;;;;;;;;22.37;100.00;99621.81;4907758;29;19923;-77
2023/09/13 06:52:37;;;;;;;;;;;;;;;22.35;100.00;99620.38;4906911;29;20040;-78
2023/09/13 06:55:04;;;;;;;;;;;;;;;22.38;100.00;99620.75;4905597;29;19974;-78
2023/09/13 06:57:30;;;;;;;;;;;;;;;22.40;100.00;99629.41;4901932;29;20319;-76
2023/09/13 06:59:55;;;;;;;;;;;;;;;22.45;100.00;99632.28;4906525;29;20026;-77
2023/09/13 07:02:21;;;;;;;;;;;;;;;22.48;100.00;99635.59;4906292;29;19932;-77
2023/09/13 07:04:46;;;;;;;;;;;;;;;22.44;100.00;99640.59;4906497;29;20010;-76
2023/09/13 07:07:11;;;;;;;;;;;;;;;22.47;100.00;99640.13;4907415;29;19923;-77
2023/09/13 07:09:37;;;;;;;;;;;;;;;22.52;100.00;99642.16;4906053;29;20023;-77
2023/09/13 07:12:02;;;;;;;;;;;;;;;22.59;100.00;99632.19;4906864;29;20339;-77
2023/09/13 07:14:28;;;;;;;;;;;;;;;22.66;100.00;99627.59;4908234;29;19924;-77
2023/09/13 07:16:53;;;;;;;;;;;;;;;22.75;100.00;99627.13;4906106;29;19931;-77
2023/09/13 07:19:18;;;;;;;;;;;;;;;22.81;100.00;99622.72;4908566;29;20354;-77
2023/09/13 07:21:44;;;;;;;;;;;;;;;22.89;100.00;99633.22;4906177;29;20006;-78
2023/09/13 07:24:12;;;;;;;;;;;;;;;22.92;100.00;99632.75;4907548;29;20030;-76
2023/09/13 07:26:37;;;;;;;;;;;;;;;22.98;100.00;99631.88;4909746;29;19946;-78
2023/09/13 07:29:03;;;;;;;;;;;;;;;23.07;100.00;99635.13;4907042;29;20285;-77
2023/09/13 07:31:28;;;;;;;;;;;;;;;23.10;100.00;99630.13;4906898;29;19923;-77
2023/09/13 07:33:53;;;;;;;;;;;;;;;23.14;100.00;99634.03;4908216;29;19927;-76
2023/09/13 07:36:19;;;;;;;;;;;;;;;23.21;100.00;99633.94;4903972;29;20396;-78
2023/09/13 07:38:44;;;;;;;;;;;;;;;23.28;100.00;99632.00;4908249;29;19923;-77
2023/09/13 07:41:09;;;;;;;;;;;;;;;23.34;100.00;99638.38;4908611;29;19927;-78
2023/09/13 07:43:35;;;;;;;;;;;;;;;23.36;100.00;99639.81;4905992;29;19930;-77
2023/09/13 07:46:01;;;;;;;;;;;;;;;23.43;100.00;99639.72;4920590;29;20336;-77
2023/09/13 07:48:27;;;;;;;;;;;;;;;23.41;100.00;99641.81;4905727;29;19958;-78
2023/09/13 07:50:52;;;;;;;;;;;;;;;23.44;100.00;99638.69;4903850;29;19923;-78
2023/09/13 07:53:18;;;;;;;;;;;;;;;23.45;100.00;99643.00;4905973;29;19931;-78
2023/09/13 07:55:43;;;;;;;;;;;;;;;23.46;100.00;99650.03;4900115;29;19931;-78
2023/09/13 07:58:09;;;;;;;;;;;;;;;23.52;100.00;99646.50;4905249;29;20018;-77
2023/09/13 08:00:34;;;;;;;;;;;;;;;23.60;100.00;99652.41;4920718;29;19923;-78
2023/09/13 08:03:00;;;;;;;;;;;;;;;23.67;100.00;99657.72;4903842;29;20486;-78
2023/09/13 08:05:25;;;;;;;;;;;;;;;23.75;100.00;99660.09;4903545;29;19930;-79
2023/09/13 08:07:52;;;;;;;;;;;;;;;23.78;100.00;99654.28;4905931;29;19923;-78
2023/09/13 08:10:17;;;;;;;;;;;;;;;23.80;100.00;99652.16;4902119;29;20398;-77
2023/09/13 08:12:42;;;;;;;;;;;;;;;23.83;100.00;99657.13;4905947;29;19995;-78
2023/09/13 08:15:08;;;;;;;;;;;;;;;23.91;100.00;99654.13;4903373;29;19931;-78
2023/09/13 08:17:34;;;;;;;;;;;;;;;23.94;100.00;99659.03;4904709;29;19947;-78
2023/09/13 08:20:01;;;;;;;;;;;;;;;23.99;100.00;99667.28;4905549;29;19923;-78
2023/09/13 08:22:26;;;;;;;;;;;;;;;24.00;100.00;99668.09;4905723;29;19930;-78
2023/09/13 08:24:52;;;;;;;;;;;;;;;24.04;100.00;99670.09;4902675;29;19927;-78
2023/09/13 08:27:17;;;;;;;;;;;;;;;24.03;100.00;99673.84;4905988;29;19953;-78
2023/09/13 08:29:42;;;;;;;;;;;;;;;24.06;100.00;99667.19;4902007;29;19977;-77
2023/09/13 08:32:08;;;;;;;;;;;;;;;24.11;100.00;99674.59;4902332;29;20019;-76
2023/09/13 08:34:34;;;;;;;;;;;;;;;24.08;100.00;99676.72;4908448;29;19935;-77
2023/09/13 08:36:59;;;;;;;;;;;;;;;24.11;100.00;99678.09;4908180;29;19923;-78
2023/09/13 08:39:25;;;;;;;;;;;;;;;24.09;100.00;99677.53;4906762;29;19930;-77
2023/09/13 08:41:54;;;;;;;;;;;;;;;24.03;100.00;99695.41;4909199;29;19942;-77
2023/09/13 08:44:21;;;;;;;;;;;;;;;24.05;100.00;99684.41;4900224;29;19927;-77
2023/09/13 08:46:50;;;;;;;;;;;;;;;24.06;100.00;99692.28;4908409;29;19982;-77
2023/09/13 08:49:19;;;;;;;;;;;;;;;23.97;100.00;99700.91;4909613;29;19919;-77
2023/09/13 08:51:46;;;;;;;;;;;;;;;23.84;100.00;99690.28;4920249;29;19994;-77
2023/09/13 08:54:11;;;;;;;;;;;;;;;23.85;100.00;99683.84;4907971;29;19930;-78
2023/09/13 08:56:38;;;;;;;;;;;;;;;23.87;100.00;99690.63;4907438;29;19923;-78
2023/09/13 08:59:03;;;;;;;;;;;;;;;23.87;100.00;99679.84;4908013;29;19927;-78
2023/09/13 09:01:30;;;;;;;;;;;;;;;23.88;100.00;99684.22;4908534;29;19950;-78
2023/09/13 09:03:56;;;;;;;;;;;;;;;23.86;100.00;99683.59;4905755;29;20022;-78
2023/09/13 09:06:21;;;;;;;;;;;;;;;23.90;100.00;99684.81;4909407;29;20405;-78
2023/09/13 09:08:48;;;;;;;;;;;;;;;23.92;100.00;99689.97;4902958;29;19941;-79
2023/09/13 09:11:14;;;;;;;;;;;;;;;23.94;100.00;99680.59;4905921;29;20397;-78
2023/09/13 09:13:41;;;;;;;;;;;;;;;23.99;100.00;99683.44;4908508;29;19919;-77
2023/09/13 09:16:07;;;;;;;;;;;;;;;23.99;100.00;99683.44;4906496;29;20272;-78
2023/09/13 09:18:33;;;;;;;;;;;;;;;24.01;100.00;99680.53;4908616;29;19923;-78
2023/09/13 09:20:59;;;;;;;;;;;;;;;24.09;100.00;99674.84;4922309;29;20318;-78
2023/09/13 09:23:24;;;;;;;;;;;;;;;24.12;100.00;99684.31;4905661;29;19930;-78
2023/09/13 09:25:50;;;;;;;;;;;;;;;24.16;100.00;99682.81;4908452;29;19927;-77
2023/09/13 09:28:15;;;;;;;;;;;;;;;24.15;100.00;99681.19;4905355;29;19970;-78
2023/09/13 09:30:40;;;;;;;;;;;;;;;24.12;100.00;99682.47;4903126;29;19927;-78
2023/09/13 09:33:06;;;;;;;;;;;;;;;24.10;100.00;99684.53;4902547;29;20014;-78
2023/09/13 09:35:36;;;;;;;;;;;;;;;24.07;100.00;99695.78;4903011;29;19923;-78
2023/09/13 09:38:01;;;;;;;;;;;;;;;24.00;100.00;99695.88;4906194;29;20010;-78
2023/09/13 09:40:27;;;;;;;;;;;;;;;23.97;100.00;99696.34;4902604;29;20014;-78
2023/09/13 09:42:56;;;;;;;;;;;;;;;23.88;100.00;99688.78;4902722;29;20021;-78
2023/09/13 09:45:21;;;;;;;;;;;;;;;23.92;100.00;99685.38;4901118;29;19934;-79
2023/09/13 09:47:47;;;;;;;;;;;;;;;23.92;100.00;99682.69;4908504;29;20377;-78
2023/09/13 09:50:13;;;;;;;;;;;;;;;23.92;100.00;99688.09;4906696;29;20066;-78
2023/09/13 09:52:38;;;;;;;;;;;;;;;23.96;100.00;99694.69;4909420;29;20094;-78
2023/09/13 09:55:04;;;;;;;;;;;;;;;24.00;100.00;99701.28;4920471;29;20672;-78
2023/09/13 09:57:29;;;;;;;;;;;;;;;23.97;100.00;99701.72;4905194;29;19971;-78
2023/09/13 09:59:58;;;;;;;;;;;;;;;23.92;100.00;99706.94;4906920;29;19994;-78
2023/09/13 10:02:27;;;;;;;;;;;;;;;23.85;100.00;99698.16;4904209;29;19931;-77
2023/09/13 10:04:52;;;;;;;;;;;;;;;23.81;100.00;99710.41;4905980;29;19923;-78
2023/09/13 10:07:17;;;;;;;;;;;;;;;23.74;100.00;99711.53;4918504;29;20387;-78
2023/09/13 10:09:44;;;;;;;;;;;;;;;23.62;100.00;99714.94;4920014;29;20411;-78
2023/09/13 10:12:10;;;;;;;;;;;;;;;23.61;100.00;99709.81;4905779;29;20026;-78
2023/09/13 10:14:37;;;;;;;;;;;;;;;23.62;100.00;99709.56;4907315;29;19927;-78
2023/09/13 10:17:03;;;;;;;;;;;;;;;23.58;100.00;99715.63;4905066;29;19923;-77
2023/09/13 10:19:29;;;;;;;;;;;;;;;23.54;100.00;99709.06;4906530;29;19983;-78
2023/09/13 10:21:55;;;;;;;;;;;;;;;23.58;100.00;99702.16;4903815;29;20337;-78
2023/09/13 10:24:21;;;;;;;;;;;;;;;23.71;100.00;99702.03;4905639;29;19924;-78
2023/09/13 10:26:50;;;;;;;;;;;;;;;23.64;100.00;99701.28;4909800;29;20360;-78
2023/09/13 10:29:15;;;;;;;;;;;;;;;23.55;100.00;99703.44;4904675;29;19923;-78
2023/09/13 10:31:44;;;;;;;;;;;;;;;23.48;100.00;99712.63;4905376;29;19931;-79
2023/09/13 10:34:18;;;;;;;;;;;;;;;23.44;100.00;99716.78;4906726;29;19987;-78
2023/09/13 10:36:45;;;;;;;;;;;;;;;23.49;100.00;99709.72;4904831;29;19931;-78
2023/09/13 10:39:16;;;;;;;;;;;;;;;23.59;100.00;99722.66;4905607;29;19933;-78
2023/09/13 10:41:45;;;;;;;;;;;;;;;23.70;100.00;99716.53;4902776;29;20018;-78
2023/09/13 10:44:11;;;;;;;;;;;;;;;23.83;100.00;99721.78;4903794;29;19971;-78
2023/09/13 10:46:37;;;;;;;;;;;;;;;23.95;100.00;99720.00;4906805;29;19965;-78
2023/09/13 10:49:03;;;;;;;;;;;;;;;24.03;100.00;99716.97;4897915;29;19924;-78
2023/09/13 10:51:30;;;;;;;;;;;;;;;24.04;100.00;99718.63;4906016;29;19970;-78
2023/09/13 10:53:56;;;;;;;;;;;;;;;24.03;100.00;99711.59;4906549;29;19930;-78
2023/09/13 10:56:22;;;;;;;;;;;;;;;24.04;100.00;99709.72;4904034;29;19927;-78
2023/09/13 10:58:49;;;;;;;;;;;;;;;24.07;100.00;99706.59;4904851;29;20061;-78
2023/09/13 11:01:15;;;;;;;;;;;;;;;24.08;100.00;99703.66;4908183;29;19935;-78
2023/09/13 11:03:41;;;;;;;;;;;;;;;24.16;100.00;99701.69;4905389;29;20513;-78
2023/09/13 11:06:08;;;;;;;;;;;;;;;24.14;100.00;99701.09;4906180;29;19927;-78
2023/09/13 11:08:33;;;;;;;;;;;;;;;24.13;100.00;99692.19;4907170;29;20025;-78
2023/09/13 11:11:18;;;;;;;;;;;;;;;24.16;100.00;99682.81;4903542;29;20416;-77
2023/09/13 11:13:44;;;;;;;;;;;;;;;24.04;100.00;99674.66;4904193;29;20022;-78
2023/09/13 11:16:13;;;;;;;;;;;;;;;24.15;100.00;99675.81;4904345;29;20059;-78
2023/09/13 11:18:46;;;;;;;;;;;;;;;24.27;100.00;99674.00;4904487;29;19924;-79
2023/09/13 11:21:18;;;;;;;;;;;;;;;24.38;100.00;99673.22;4905791;29;19927;-78
2023/09/13 11:23:47;;;;;;;;;;;;;;;24.43;100.00;99678.75;4902683;29;20445;-78
2023/09/13 11:26:13;;;;;;;;;;;;;;;24.44;100.00;99685.78;4904301;29;19923;-78
2023/09/13 11:28:38;;;;;;;;;;;;;;;24.48;100.00;99687.81;4904861;29;20010;-78
2023/09/13 11:31:07;;;;;;;;;;;;;;;24.54;100.00;99683.34;4903097;29;19938;-78
2023/09/13 11:33:44;;;;;;;;;;;;;;;24.69;100.00;99689.13;4907218;29;19923;-78
2023/09/13 11:36:14;;;;;;;;;;;;;;;24.84;100.00;99686.84;4906814;29;20004;-77
2023/09/13 11:38:40;;;;;;;;;;;;;;;24.97;100.00;99677.75;4905573;29;19951;-77
2023/09/13 11:41:05;;;;;;;;;;;;;;;25.12;100.00;99677.25;4909371;29;19934;-77
2023/09/13 11:43:34;;;;;;;;;;;;;;;25.11;100.00;99686.41;4912583;29;20425;-77
2023/09/13 11:46:00;;;;;;;;;;;;;;;25.15;100.00;99677.59;4910184;29;19934;-77
2023/09/13 11:48:25;;;;;;;;;;;;;;;25.19;100.00;99677.97;4915106;29;19951;-76
2023/09/13 11:50:51;;;;;;;;;;;;;;;25.20;100.00;99676.94;4914852;29;20218;-76
2023/09/13 11:53:19;;;;;;;;;;;;;;;25.21;100.00;99670.47;4928196;29;19923;-77
2023/09/13 11:55:49;;;;;;;;;;;;;;;25.12;100.00;99667.28;4905485;29;19923;-78
2023/09/13 11:58:18;;;;;;;;;;;;;;;25.05;100.00;99666.56;4905804;29;19971;-79
2023/09/13 12:00:43;;;;;;;;;;;;;;;25.03;100.00;99662.47;4908339;29;20008;-77
2023/09/13 12:03:09;;;;;;;;;;;;;;;25.17;100.00;99663.88;4904496;29;20358;-78
2023/09/13 12:05:36;;;;;;;;;;;;;;;25.29;100.00;99678.19;4905292;29;20316;-77
2023/09/13 12:08:02;;;;;;;;;;;;;;;25.25;100.00;99683.28;4903829;29;19924;-77
2023/09/13 12:10:37;;;;;;;;;;;;;;;25.26;100.00;99674.13;4907683;29;19923;-77
2023/09/13 12:13:02;;;;;;;;;;;;;;;25.24;100.00;99670.00;4908453;29;19930;-78
2023/09/13 12:15:29;;;;;;;;;;;;;;;25.32;100.00;99671.53;4908778;29;19923;-77
2023/09/13 12:17:59;;;;;;;;;;;;;;;25.33;100.00;99679.38;4907083;29;19927;-77
2023/09/13 12:20:25;;;;;;;;;;;;;;;25.43;100.00;99673.41;4911910;29;19923;-78
2023/09/13 12:22:51;;;;;;;;;;;;;;;25.49;100.00;99667.88;4906702;29;19925;-78
2023/09/13 12:25:16;;;;;;;;;;;;;;;25.51;100.00;99665.72;4906226;29;20369;-78
2023/09/13 12:27:45;;;;;;;;;;;;;;;25.38;100.00;99671.41;4927221;29;19956;-78
2023/09/13 12:30:18;;;;;;;;;;;;;;;25.31;100.00;99675.28;4907798;29;20119;-77